createdAt,value
2018-12-21T00:00:10.112Z,0.83
2018-12-21T00:00:41.256Z,0.83
2018-12-21T00:01:12.368Z,0.86
2018-12-21T00:01:43.485Z,0.84
2018-12-21T00:02:14.597Z,0.85
2018-12-21T00:02:45.701Z,0.80
2018-12-21T00:03:16.801Z,0.83
2018-12-21T00:03:47.913Z,0.86
2018-12-21T00:04:19.040Z,0.90
2018-12-21T00:04:50.160Z,0.88
2018-12-21T00:05:21.270Z,0.84
2018-12-21T00:05:52.468Z,0.81
2018-12-21T00:06:23.591Z,0.75
2018-12-21T00:06:54.709Z,0.76
2018-12-21T00:07:25.818Z,0.75
2018-12-21T00:07:58.707Z,0.75
2018-12-21T00:08:30.058Z,0.79
2018-12-21T00:09:01.162Z,0.84
2018-12-21T00:09:32.260Z,0.89
2018-12-21T00:10:03.365Z,0.90
2018-12-21T00:10:34.463Z,0.90
2018-12-21T00:11:05.605Z,0.91
2018-12-21T00:11:36.718Z,0.94
2018-12-21T00:12:07.817Z,0.96
2018-12-21T00:12:38.967Z,1.00
2018-12-21T00:13:10.072Z,0.98
2018-12-21T00:13:41.175Z,0.95
2018-12-21T00:14:12.276Z,0.94
2018-12-21T00:14:43.415Z,0.92
2018-12-21T00:15:14.517Z,0.90
2018-12-21T00:15:45.638Z,0.92
2018-12-21T00:16:16.736Z,0.92
2018-12-21T00:16:47.840Z,0.92
2018-12-21T00:17:18.956Z,0.90
2018-12-21T00:17:50.056Z,0.90
2018-12-21T00:18:21.166Z,0.89
2018-12-21T00:18:52.272Z,0.93
2018-12-21T00:19:23.372Z,0.97
2018-12-21T00:19:54.484Z,0.99
2018-12-21T00:20:25.588Z,0.95
2018-12-21T00:20:56.728Z,0.97
2018-12-21T00:21:27.861Z,1.04
2018-12-21T00:21:58.974Z,0.96
2018-12-21T00:22:30.078Z,1.01
2018-12-21T00:23:01.229Z,1.08
2018-12-21T00:23:32.344Z,1.12
2018-12-21T00:24:03.450Z,1.09
2018-12-21T00:24:34.563Z,1.09
2018-12-21T00:25:05.678Z,1.08
2018-12-21T00:25:36.781Z,1.06
2018-12-21T00:26:07.893Z,1.05
2018-12-21T00:26:39.009Z,1.05
2018-12-21T00:27:10.138Z,1.02
2018-12-21T00:27:41.243Z,0.96
2018-12-21T00:28:12.447Z,0.93
2018-12-21T00:28:43.587Z,0.98
2018-12-21T00:29:14.684Z,1.03
2018-12-21T00:29:45.790Z,1.14
2018-12-21T00:30:16.957Z,1.19
2018-12-21T00:30:48.073Z,1.17
2018-12-21T00:31:19.245Z,1.15
2018-12-21T00:31:50.358Z,1.15
2018-12-21T00:32:21.505Z,1.16
2018-12-21T00:32:52.630Z,1.15
2018-12-21T00:33:23.788Z,1.13
2018-12-21T00:33:54.898Z,1.13
2018-12-21T00:34:26.012Z,1.17
2018-12-21T00:34:57.125Z,1.20
2018-12-21T00:35:28.253Z,1.22
2018-12-21T00:35:59.361Z,1.30
2018-12-21T00:36:30.503Z,1.34
2018-12-21T00:37:01.608Z,1.38
2018-12-21T00:37:32.800Z,1.41
2018-12-21T00:38:05.659Z,1.41
2018-12-21T00:38:37.013Z,0.77
2018-12-21T00:39:08.154Z,1.42
2018-12-21T00:39:39.278Z,1.42
2018-12-21T00:40:10.384Z,1.42
2018-12-21T00:40:41.497Z,1.42
2018-12-21T00:41:12.610Z,1.41
2018-12-21T00:41:43.756Z,1.39
2018-12-21T00:42:14.864Z,1.34
2018-12-21T00:42:46.093Z,1.31
2018-12-21T00:43:17.208Z,1.30
2018-12-21T00:43:48.322Z,1.31
2018-12-21T00:44:19.428Z,1.32
2018-12-21T00:44:50.787Z,1.28
2018-12-21T00:45:21.965Z,1.18
2018-12-21T00:45:53.072Z,1.13
2018-12-21T00:46:24.185Z,1.07
2018-12-21T00:46:55.336Z,1.06
2018-12-21T00:47:26.458Z,1.09
2018-12-21T00:47:57.598Z,1.11
2018-12-21T00:48:28.718Z,1.09
2018-12-21T00:48:59.824Z,1.03
2018-12-21T00:49:30.921Z,0.99
2018-12-21T00:50:02.048Z,0.68
2018-12-21T00:50:33.230Z,0.93
2018-12-21T00:51:04.328Z,0.88
2018-12-21T00:51:35.438Z,0.89
2018-12-21T00:52:06.540Z,0.87
2018-12-21T00:52:37.708Z,0.84
2018-12-21T00:53:08.842Z,0.83
2018-12-21T00:53:39.944Z,0.84
2018-12-21T00:54:11.064Z,0.86
2018-12-21T00:54:42.164Z,0.84
2018-12-21T00:55:13.260Z,0.85
2018-12-21T00:55:44.421Z,0.84
2018-12-21T00:56:15.528Z,0.84
2018-12-21T00:56:46.641Z,0.86
2018-12-21T00:57:17.745Z,0.86
2018-12-21T00:57:48.958Z,0.86
2018-12-21T00:58:20.071Z,0.89
2018-12-21T00:58:51.183Z,0.88
2018-12-21T00:59:22.295Z,0.91
2018-12-21T00:59:53.396Z,0.90
2018-12-21T01:00:24.505Z,0.90
2018-12-21T01:00:55.645Z,0.91
2018-12-21T01:01:26.788Z,0.93
2018-12-21T01:01:57.891Z,0.94
2018-12-21T01:02:28.995Z,0.90
2018-12-21T01:03:00.102Z,0.88
2018-12-21T01:03:31.210Z,0.91
2018-12-21T01:04:02.337Z,0.91
2018-12-21T01:04:33.441Z,0.96
2018-12-21T01:05:04.548Z,1.00
2018-12-21T01:05:35.660Z,1.03
2018-12-21T01:06:06.778Z,1.03
2018-12-21T01:06:37.913Z,1.02
2018-12-21T01:07:09.018Z,1.01
2018-12-21T01:07:40.119Z,1.02
2018-12-21T01:08:11.224Z,1.02
2018-12-21T01:08:42.325Z,1.07
2018-12-21T01:09:13.454Z,1.08
2018-12-21T01:09:44.568Z,1.08
2018-12-21T01:10:15.780Z,1.09
2018-12-21T01:10:46.903Z,1.11
2018-12-21T01:11:18.009Z,1.10
2018-12-21T01:11:49.116Z,1.10
2018-12-21T01:12:20.346Z,1.07
2018-12-21T01:12:51.467Z,1.02
2018-12-21T01:13:22.582Z,1.00
2018-12-21T01:13:53.700Z,1.00
2018-12-21T01:14:24.806Z,1.02
2018-12-21T01:14:55.925Z,1.03
2018-12-21T01:15:27.070Z,0.88
2018-12-21T01:15:58.171Z,1.05
2018-12-21T01:16:29.313Z,1.10
2018-12-21T01:17:00.419Z,1.11
2018-12-21T01:17:31.730Z,1.11
2018-12-21T01:18:02.844Z,1.10
2018-12-21T01:18:33.951Z,1.15
2018-12-21T01:19:05.060Z,1.16
2018-12-21T01:19:36.184Z,1.13
2018-12-21T01:20:07.379Z,1.13
2018-12-21T01:20:38.557Z,1.10
2018-12-21T01:21:09.745Z,1.16
2018-12-21T01:21:40.856Z,1.17
2018-12-21T01:22:12.016Z,1.17
2018-12-21T01:22:43.129Z,1.17
2018-12-21T01:23:14.260Z,1.14
2018-12-21T01:23:45.388Z,1.13
2018-12-21T01:24:16.493Z,1.11
2018-12-21T01:24:47.642Z,1.08
2018-12-21T01:25:18.796Z,1.05
2018-12-21T01:25:49.941Z,0.98
2018-12-21T01:26:21.064Z,1.01
2018-12-21T01:26:52.184Z,1.11
2018-12-21T01:27:23.313Z,1.18
2018-12-21T01:27:54.471Z,1.20
2018-12-21T01:28:25.570Z,1.21
2018-12-21T01:28:56.714Z,1.22
2018-12-21T01:29:27.881Z,1.24
2018-12-21T01:29:58.992Z,1.26
2018-12-21T01:30:30.096Z,1.27
2018-12-21T01:31:01.205Z,1.28
2018-12-21T01:31:32.355Z,1.35
2018-12-21T01:32:03.455Z,1.40
2018-12-21T01:32:34.560Z,1.40
2018-12-21T01:33:05.666Z,1.40
2018-12-21T01:33:36.781Z,1.30
2018-12-21T01:34:07.950Z,1.26
2018-12-21T01:34:39.069Z,1.24
2018-12-21T01:35:10.261Z,1.17
2018-12-21T01:35:41.376Z,1.11
2018-12-21T01:36:12.591Z,1.12
2018-12-21T01:36:43.717Z,1.11
2018-12-21T01:37:14.900Z,1.06
2018-12-21T01:37:46.004Z,1.05
2018-12-21T01:38:17.109Z,1.04
2018-12-21T01:38:48.208Z,1.03
2018-12-21T01:39:19.309Z,1.06
2018-12-21T01:39:50.444Z,1.06
2018-12-21T01:40:21.556Z,1.03
2018-12-21T01:40:52.655Z,0.98
2018-12-21T01:41:23.759Z,0.95
2018-12-21T01:41:54.869Z,0.93
2018-12-21T01:42:25.963Z,0.94
2018-12-21T01:42:57.079Z,0.95
2018-12-21T01:43:28.208Z,0.92
2018-12-21T01:43:59.299Z,0.86
2018-12-21T01:44:30.433Z,0.83
2018-12-21T01:45:01.527Z,0.80
2018-12-21T01:45:32.631Z,0.80
2018-12-21T01:46:03.735Z,0.80
2018-12-21T01:46:34.848Z,0.80
2018-12-21T01:47:05.948Z,0.81
2018-12-21T01:47:37.075Z,0.80
2018-12-21T01:48:08.172Z,0.83
2018-12-21T01:48:39.281Z,0.85
2018-12-21T01:49:10.440Z,0.84
2018-12-21T01:49:41.546Z,0.84
2018-12-21T01:50:12.656Z,0.83
2018-12-21T01:50:43.766Z,0.84
2018-12-21T01:51:14.999Z,0.82
2018-12-21T01:51:47.162Z,0.79
2018-12-21T01:52:18.689Z,0.76
2018-12-21T01:52:49.806Z,0.73
2018-12-21T01:53:20.918Z,0.75
2018-12-21T01:53:52.029Z,0.74
2018-12-21T01:54:23.139Z,0.76
2018-12-21T01:54:54.257Z,0.71
2018-12-21T01:55:25.394Z,0.68
2018-12-21T01:55:56.509Z,0.67
2018-12-21T01:56:27.613Z,0.68
2018-12-21T01:56:58.779Z,0.73
2018-12-21T01:57:29.902Z,0.75
2018-12-21T01:58:01.047Z,0.77
2018-12-21T01:58:32.143Z,0.79
2018-12-21T01:59:03.285Z,0.80
2018-12-21T01:59:34.393Z,0.82
2018-12-21T02:00:05.504Z,0.81
2018-12-21T02:00:36.621Z,0.80
2018-12-21T02:01:07.721Z,0.79
2018-12-21T02:01:38.826Z,0.78
2018-12-21T02:02:09.971Z,0.80
2018-12-21T02:02:41.075Z,0.84
2018-12-21T02:03:12.180Z,0.86
2018-12-21T02:03:43.281Z,0.88
2018-12-21T02:04:14.414Z,0.91
2018-12-21T02:04:45.538Z,0.93
2018-12-21T02:05:16.642Z,0.94
2018-12-21T02:05:47.750Z,0.99
2018-12-21T02:06:18.853Z,1.01
2018-12-21T02:06:49.996Z,0.99
2018-12-21T02:07:21.108Z,1.00
2018-12-21T02:07:52.212Z,1.01
2018-12-21T02:08:23.317Z,1.02
2018-12-21T02:08:54.456Z,1.06
2018-12-21T02:09:25.560Z,1.06
2018-12-21T02:09:56.670Z,1.08
2018-12-21T02:10:27.774Z,1.07
2018-12-21T02:10:58.913Z,1.04
2018-12-21T02:11:30.044Z,1.07
2018-12-21T02:12:01.149Z,1.08
2018-12-21T02:12:32.284Z,1.08
2018-12-21T02:13:03.428Z,1.07
2018-12-21T02:13:34.624Z,1.05
2018-12-21T02:14:05.726Z,0.99
2018-12-21T02:14:36.837Z,0.91
2018-12-21T02:15:07.941Z,0.90
2018-12-21T02:15:39.083Z,0.89
2018-12-21T02:16:10.185Z,0.88
2018-12-21T02:16:41.325Z,0.89
2018-12-21T02:17:12.429Z,0.89
2018-12-21T02:17:43.539Z,0.91
2018-12-21T02:18:14.669Z,0.88
2018-12-21T02:18:45.780Z,0.83
2018-12-21T02:19:16.902Z,0.83
2018-12-21T02:19:48.046Z,0.80
2018-12-21T02:20:19.154Z,0.80
2018-12-21T02:20:50.253Z,0.79
2018-12-21T02:21:21.396Z,0.76
2018-12-21T02:21:55.982Z,0.75
2018-12-21T02:22:25.668Z,0.72
2018-12-21T02:22:56.770Z,0.72
2018-12-21T02:23:27.876Z,0.73
2018-12-21T02:23:58.988Z,0.77
2018-12-21T02:24:30.094Z,0.78
2018-12-21T02:25:01.203Z,0.79
2018-12-21T02:25:32.346Z,0.81
2018-12-21T02:26:03.506Z,0.81
2018-12-21T02:26:34.708Z,0.89
2018-12-21T02:27:05.825Z,0.93
2018-12-21T02:27:36.927Z,0.92
2018-12-21T02:28:08.032Z,0.95
2018-12-21T02:28:39.163Z,0.98
2018-12-21T02:29:10.279Z,1.00
2018-12-21T02:29:41.382Z,0.98
2018-12-21T02:30:12.493Z,0.96
2018-12-21T02:30:43.603Z,1.02
2018-12-21T02:31:14.722Z,1.07
2018-12-21T02:31:45.854Z,1.14
2018-12-21T02:32:16.984Z,1.18
2018-12-21T02:32:48.214Z,1.18
2018-12-21T02:33:19.353Z,1.11
2018-12-21T02:33:50.474Z,1.07
2018-12-21T02:34:21.633Z,1.04
2018-12-21T02:34:52.757Z,1.00
2018-12-21T02:35:23.864Z,0.98
2018-12-21T02:35:54.969Z,0.98
2018-12-21T02:36:26.090Z,0.98
2018-12-21T02:36:57.205Z,0.96
2018-12-21T02:37:28.328Z,0.96
2018-12-21T02:37:59.437Z,0.95
2018-12-21T02:38:30.580Z,0.96
2018-12-21T02:39:01.695Z,0.95
2018-12-21T02:39:32.829Z,0.89
2018-12-21T02:40:03.988Z,0.88
2018-12-21T02:40:35.114Z,0.93
2018-12-21T02:41:06.301Z,0.96
2018-12-21T02:41:38.376Z,0.97
2018-12-21T02:42:09.526Z,0.96
2018-12-21T02:42:40.762Z,1.01
2018-12-21T02:43:11.882Z,1.04
2018-12-21T02:43:42.993Z,1.03
2018-12-21T02:44:14.099Z,1.03
2018-12-21T02:44:45.258Z,1.05
2018-12-21T02:45:17.557Z,1.07
2018-12-21T02:45:48.675Z,1.08
2018-12-21T02:46:19.789Z,1.09
2018-12-21T02:46:50.899Z,1.11
2018-12-21T02:47:22.014Z,1.09
2018-12-21T02:47:53.126Z,1.08
2018-12-21T02:48:24.234Z,1.09
2018-12-21T02:48:55.348Z,1.06
2018-12-21T02:49:26.472Z,1.05
2018-12-21T02:49:57.597Z,1.07
2018-12-21T02:50:28.744Z,1.10
2018-12-21T02:50:59.904Z,1.09
2018-12-21T02:51:31.003Z,1.13
2018-12-21T02:52:05.696Z,1.14
2018-12-21T02:52:35.299Z,1.13
2018-12-21T02:53:06.417Z,1.07
2018-12-21T02:53:37.529Z,1.11
2018-12-21T02:54:08.643Z,1.09
2018-12-21T02:54:39.776Z,1.05
2018-12-21T02:55:10.991Z,1.05
2018-12-21T02:55:42.149Z,1.05
2018-12-21T02:56:13.259Z,1.04
2018-12-21T02:56:44.368Z,1.05
2018-12-21T02:57:15.497Z,1.07
2018-12-21T02:57:46.606Z,1.08
2018-12-21T02:58:17.721Z,1.09
2018-12-21T02:58:48.836Z,1.10
2018-12-21T02:59:19.955Z,1.08
2018-12-21T02:59:51.075Z,1.10
2018-12-21T03:00:22.240Z,1.09
2018-12-21T03:00:53.356Z,1.08
2018-12-21T03:01:24.462Z,1.07
2018-12-21T03:01:55.587Z,1.11
2018-12-21T03:02:26.693Z,1.11
2018-12-21T03:02:57.804Z,1.11
2018-12-21T03:03:28.911Z,1.09
2018-12-21T03:04:00.017Z,1.12
2018-12-21T03:04:31.134Z,1.11
2018-12-21T03:05:02.244Z,1.13
2018-12-21T03:05:33.378Z,1.14
2018-12-21T03:06:04.489Z,1.15
2018-12-21T03:06:35.614Z,1.16
2018-12-21T03:07:06.734Z,1.17
2018-12-21T03:07:37.852Z,1.20
2018-12-21T03:08:08.972Z,1.21
2018-12-21T03:08:40.086Z,1.25
2018-12-21T03:09:11.210Z,1.24
2018-12-21T03:09:42.341Z,1.26
2018-12-21T03:10:13.464Z,1.28
2018-12-21T03:10:44.602Z,1.30
2018-12-21T03:11:54.341Z,1.34
2018-12-21T03:12:25.454Z,1.33
2018-12-21T03:12:56.572Z,1.30
2018-12-21T03:13:27.695Z,1.29
2018-12-21T03:13:58.848Z,1.28
2018-12-21T03:14:29.960Z,1.26
2018-12-21T03:15:01.067Z,1.27
2018-12-21T03:15:32.209Z,1.30
2018-12-21T03:16:03.324Z,1.33
2018-12-21T03:16:34.447Z,1.34
2018-12-21T03:17:05.559Z,1.36
2018-12-21T03:17:36.674Z,1.35
2018-12-21T03:18:07.782Z,1.37
2018-12-21T03:18:38.902Z,1.37
2018-12-21T03:19:10.009Z,1.38
2018-12-21T03:19:41.128Z,1.39
2018-12-21T03:20:12.256Z,1.40
2018-12-21T03:20:43.410Z,1.39
2018-12-21T03:21:14.512Z,1.36
2018-12-21T03:21:45.683Z,1.34
2018-12-21T03:22:16.786Z,1.36
2018-12-21T03:22:47.914Z,1.37
2018-12-21T03:23:19.029Z,1.34
2018-12-21T03:23:50.271Z,1.34
2018-12-21T03:24:21.390Z,1.33
2018-12-21T03:24:52.564Z,1.23
2018-12-21T03:25:23.686Z,1.17
2018-12-21T03:25:54.820Z,1.12
2018-12-21T03:26:25.991Z,1.04
2018-12-21T03:26:57.147Z,1.01
2018-12-21T03:27:28.356Z,1.07
2018-12-21T03:27:59.468Z,1.12
2018-12-21T03:28:30.645Z,1.19
2018-12-21T03:29:01.751Z,1.24
2018-12-21T03:29:32.944Z,1.26
2018-12-21T03:30:04.210Z,1.29
2018-12-21T03:30:35.301Z,1.30
2018-12-21T03:31:06.410Z,1.31
2018-12-21T03:31:37.566Z,1.32
2018-12-21T03:32:08.680Z,1.32
2018-12-21T03:32:39.796Z,1.32
2018-12-21T03:33:10.897Z,1.34
2018-12-21T03:33:42.019Z,1.35
2018-12-21T03:34:13.150Z,1.35
2018-12-21T03:34:44.294Z,1.34
2018-12-21T03:35:15.421Z,1.34
2018-12-21T03:35:46.544Z,1.34
2018-12-21T03:36:17.661Z,1.34
2018-12-21T03:36:48.780Z,1.37
2018-12-21T03:37:19.937Z,1.39
2018-12-21T03:37:51.087Z,1.40
2018-12-21T03:38:22.193Z,1.42
2018-12-21T03:38:53.332Z,1.44
2018-12-21T03:39:24.429Z,1.44
2018-12-21T03:39:55.542Z,1.45
2018-12-21T03:40:26.645Z,1.45
2018-12-21T03:40:57.752Z,1.45
2018-12-21T03:41:28.868Z,1.45
2018-12-21T03:42:00.015Z,1.45
2018-12-21T03:42:31.129Z,1.47
2018-12-21T03:43:02.284Z,1.47
2018-12-21T03:43:33.397Z,1.48
2018-12-21T03:44:04.539Z,1.51
2018-12-21T03:44:35.656Z,1.51
2018-12-21T03:45:06.808Z,1.50
2018-12-21T03:45:37.933Z,1.49
2018-12-21T03:46:09.038Z,1.46
2018-12-21T03:46:40.153Z,1.46
2018-12-21T03:47:11.261Z,1.46
2018-12-21T03:47:42.433Z,1.46
2018-12-21T03:48:13.536Z,1.47
2018-12-21T03:48:44.683Z,1.47
2018-12-21T03:49:15.834Z,1.47
2018-12-21T03:49:50.083Z,1.45
2018-12-21T03:50:21.190Z,1.46
2018-12-21T03:50:52.299Z,1.47
2018-12-21T03:51:23.408Z,1.47
2018-12-21T03:51:54.531Z,1.48
2018-12-21T03:52:25.674Z,1.48
2018-12-21T03:52:56.780Z,1.50
2018-12-21T03:53:27.883Z,1.50
2018-12-21T03:53:59.005Z,1.47
2018-12-21T03:54:30.119Z,1.44
2018-12-21T03:55:01.224Z,1.39
2018-12-21T03:55:32.361Z,1.34
2018-12-21T03:56:03.465Z,1.29
2018-12-21T03:56:34.603Z,1.22
2018-12-21T03:57:05.722Z,1.20
2018-12-21T03:57:36.837Z,1.19
2018-12-21T03:58:07.945Z,1.20
2018-12-21T03:58:39.094Z,1.21
2018-12-21T03:59:11.178Z,1.21
2018-12-21T03:59:43.335Z,1.23
2018-12-21T04:00:14.486Z,1.26
2018-12-21T04:00:45.664Z,1.25
2018-12-21T04:01:16.782Z,1.25
2018-12-21T04:01:47.897Z,1.26
2018-12-21T04:02:20.895Z,1.26
2018-12-21T04:02:52.340Z,1.26
2018-12-21T04:03:23.446Z,1.21
2018-12-21T04:03:54.600Z,1.21
2018-12-21T04:04:25.707Z,1.23
2018-12-21T04:04:56.818Z,1.23
2018-12-21T04:05:27.941Z,1.22
2018-12-21T04:05:59.050Z,1.19
2018-12-21T04:06:30.161Z,1.14
2018-12-21T04:07:01.288Z,1.11
2018-12-21T04:07:32.399Z,1.08
2018-12-21T04:08:03.502Z,1.03
2018-12-21T04:08:34.641Z,1.00
2018-12-21T04:09:05.969Z,0.98
2018-12-21T04:09:37.089Z,0.99
2018-12-21T04:10:08.209Z,1.03
2018-12-21T04:10:39.325Z,1.02
2018-12-21T04:11:10.446Z,1.04
2018-12-21T04:11:41.578Z,1.06
2018-12-21T04:12:12.810Z,1.08
2018-12-21T04:12:43.938Z,1.09
2018-12-21T04:13:15.049Z,1.14
2018-12-21T04:13:46.176Z,1.14
2018-12-21T04:14:17.342Z,1.14
2018-12-21T04:14:48.457Z,1.17
2018-12-21T04:15:19.590Z,1.19
2018-12-21T04:15:50.701Z,1.22
2018-12-21T04:16:21.839Z,1.23
2018-12-21T04:16:52.960Z,1.23
2018-12-21T04:17:24.068Z,1.21
2018-12-21T04:17:55.191Z,1.19
2018-12-21T04:18:26.344Z,1.18
2018-12-21T04:18:57.472Z,1.18
2018-12-21T04:19:28.612Z,1.12
2018-12-21T04:19:59.722Z,1.11
2018-12-21T04:20:30.886Z,1.11
2018-12-21T04:21:02.109Z,1.12
2018-12-21T04:21:33.259Z,1.12
2018-12-21T04:22:04.366Z,1.12
2018-12-21T04:22:35.477Z,1.15
2018-12-21T04:23:06.578Z,1.12
2018-12-21T04:23:37.695Z,1.13
2018-12-21T04:24:08.807Z,1.10
2018-12-21T04:24:39.911Z,1.07
2018-12-21T04:25:11.025Z,1.07
2018-12-21T04:25:42.185Z,1.11
2018-12-21T04:26:13.298Z,1.13
2018-12-21T04:26:44.416Z,1.16
2018-12-21T04:27:15.529Z,1.15
2018-12-21T04:27:46.648Z,1.15
2018-12-21T04:28:17.817Z,1.16
2018-12-21T04:28:48.920Z,1.16
2018-12-21T04:29:20.041Z,1.15
2018-12-21T04:29:51.159Z,1.15
2018-12-21T04:30:22.266Z,1.17
2018-12-21T04:30:54.549Z,1.18
2018-12-21T04:31:25.692Z,1.16
2018-12-21T04:31:56.828Z,1.16
2018-12-21T04:32:27.935Z,1.17
2018-12-21T04:32:59.044Z,1.17
2018-12-21T04:33:30.164Z,1.17
2018-12-21T04:34:01.283Z,1.18
2018-12-21T04:34:32.409Z,1.16
2018-12-21T04:35:03.544Z,1.14
2018-12-21T04:35:34.814Z,1.13
2018-12-21T04:36:05.975Z,1.14
2018-12-21T04:36:37.216Z,1.13
2018-12-21T04:37:08.332Z,1.15
2018-12-21T04:37:39.476Z,1.18
2018-12-21T04:38:10.579Z,1.19
2018-12-21T04:38:41.722Z,1.22
2018-12-21T04:39:12.933Z,1.21
2018-12-21T04:39:44.041Z,1.20
2018-12-21T04:40:15.720Z,1.19
2018-12-21T04:40:46.913Z,1.16
2018-12-21T04:41:18.074Z,1.16
2018-12-21T04:41:49.257Z,1.15
2018-12-21T04:42:20.393Z,1.13
2018-12-21T04:42:51.534Z,1.18
2018-12-21T04:43:22.633Z,1.18
2018-12-21T04:43:53.736Z,1.22
2018-12-21T04:44:24.873Z,1.24
2018-12-21T04:44:56.154Z,1.24
2018-12-21T04:45:27.355Z,1.24
2018-12-21T04:45:58.519Z,1.25
2018-12-21T04:46:29.623Z,1.26
2018-12-21T04:47:00.726Z,1.27
2018-12-21T04:47:31.883Z,1.27
2018-12-21T04:48:02.993Z,1.26
2018-12-21T04:48:36.158Z,1.26
2018-12-21T04:49:07.275Z,1.18
2018-12-21T04:49:38.397Z,1.18
2018-12-21T04:50:09.509Z,1.18
2018-12-21T04:50:40.666Z,1.19
2018-12-21T04:51:11.772Z,1.21
2018-12-21T04:51:42.880Z,1.18
2018-12-21T04:52:13.988Z,1.18
2018-12-21T04:52:45.087Z,1.20
2018-12-21T04:53:16.773Z,1.19
2018-12-21T04:53:48.664Z,1.20
2018-12-21T04:54:19.778Z,1.17
2018-12-21T04:54:50.902Z,1.16
2018-12-21T04:55:22.045Z,1.19
2018-12-21T04:55:53.144Z,0.95
2018-12-21T04:56:24.256Z,1.20
2018-12-21T04:56:55.371Z,1.15
2018-12-21T04:57:26.530Z,1.15
2018-12-21T04:57:57.648Z,1.11
2018-12-21T04:58:28.762Z,1.13
2018-12-21T04:58:59.870Z,1.14
2018-12-21T04:59:30.990Z,1.13
2018-12-21T05:00:02.231Z,1.13
2018-12-21T05:00:34.897Z,1.15
2018-12-21T05:01:06.011Z,1.17
2018-12-21T05:01:37.157Z,1.17
2018-12-21T05:02:08.333Z,1.17
2018-12-21T05:02:39.443Z,1.16
2018-12-21T05:03:10.575Z,1.13
2018-12-21T05:03:41.700Z,1.11
2018-12-21T05:04:19.700Z,1.09
2018-12-21T05:04:45.955Z,1.08
2018-12-21T05:05:17.076Z,1.07
2018-12-21T05:05:48.212Z,1.08
2018-12-21T05:06:19.338Z,1.07
2018-12-21T05:06:50.547Z,1.08
2018-12-21T05:07:21.692Z,1.08
2018-12-21T05:07:52.852Z,1.09
2018-12-21T05:08:23.966Z,1.12
2018-12-21T05:08:55.074Z,1.13
2018-12-21T05:09:26.183Z,1.16
2018-12-21T05:09:57.288Z,1.19
2018-12-21T05:10:28.394Z,1.20
2018-12-21T05:10:59.504Z,1.22
2018-12-21T05:11:30.613Z,1.22
2018-12-21T05:12:01.763Z,1.21
2018-12-21T05:12:32.868Z,1.19
2018-12-21T05:13:03.974Z,1.19
2018-12-21T05:13:35.077Z,1.19
2018-12-21T05:14:07.897Z,1.21
2018-12-21T05:14:39.351Z,1.23
2018-12-21T05:15:10.462Z,1.29
2018-12-21T05:15:41.567Z,1.30
2018-12-21T05:16:12.691Z,1.28
2018-12-21T05:16:43.799Z,1.27
2018-12-21T05:17:14.972Z,1.26
2018-12-21T05:17:46.072Z,1.24
2018-12-21T05:18:17.211Z,1.24
2018-12-21T05:18:48.348Z,1.24
2018-12-21T05:19:19.460Z,1.23
2018-12-21T05:19:50.714Z,1.19
2018-12-21T05:20:21.833Z,1.19
2018-12-21T05:20:52.953Z,1.20
2018-12-21T05:21:24.061Z,1.22
2018-12-21T05:21:55.183Z,1.25
2018-12-21T05:22:26.786Z,1.26
2018-12-21T05:22:57.945Z,1.30
2018-12-21T05:23:29.052Z,1.31
2018-12-21T05:24:00.174Z,1.33
2018-12-21T05:24:31.289Z,1.35
2018-12-21T05:25:02.387Z,1.35
2018-12-21T05:25:33.493Z,1.35
2018-12-21T05:26:04.673Z,1.37
2018-12-21T05:26:35.808Z,1.38
2018-12-21T05:27:06.921Z,1.40
2018-12-21T05:27:38.033Z,1.38
2018-12-21T05:28:09.142Z,1.36
2018-12-21T05:28:40.249Z,1.36
2018-12-21T05:29:11.377Z,1.37
2018-12-21T05:29:43.980Z,1.38
2018-12-21T05:30:15.188Z,1.40
2018-12-21T05:30:46.349Z,1.44
2018-12-21T05:31:17.481Z,1.43
2018-12-21T05:31:48.617Z,1.43
2018-12-21T05:32:19.767Z,1.41
2018-12-21T05:32:50.893Z,1.42
2018-12-21T05:33:22.003Z,1.42
2018-12-21T05:33:53.112Z,1.45
2018-12-21T05:34:24.221Z,1.46
2018-12-21T05:34:55.329Z,1.49
2018-12-21T05:35:26.481Z,1.50
2018-12-21T05:35:57.618Z,1.48
2018-12-21T05:36:28.733Z,1.48
2018-12-21T05:36:59.832Z,1.48
2018-12-21T05:37:30.943Z,1.48
2018-12-21T05:38:02.062Z,1.48
2018-12-21T05:38:33.178Z,1.47
2018-12-21T05:39:06.167Z,1.48
2018-12-21T05:39:37.321Z,1.46
2018-12-21T05:40:08.457Z,1.47
2018-12-21T05:40:40.914Z,1.46
2018-12-21T05:41:12.052Z,1.44
2018-12-21T05:41:43.162Z,1.38
2018-12-21T05:42:14.263Z,1.37
2018-12-21T05:42:45.386Z,1.35
2018-12-21T05:43:16.497Z,1.35
2018-12-21T05:43:47.636Z,1.32
2018-12-21T05:44:18.772Z,1.28
2018-12-21T05:44:50.016Z,1.27
2018-12-21T05:45:21.134Z,1.25
2018-12-21T05:45:52.258Z,1.27
2018-12-21T05:46:23.461Z,1.20
2018-12-21T05:46:56.375Z,1.20
2018-12-21T05:47:27.558Z,1.18
2018-12-21T05:47:58.673Z,1.19
2018-12-21T05:48:29.792Z,1.13
2018-12-21T05:49:00.893Z,1.09
2018-12-21T05:49:32.010Z,1.06
2018-12-21T05:50:03.134Z,0.87
2018-12-21T05:50:34.253Z,1.02
2018-12-21T05:51:05.380Z,1.02
2018-12-21T05:51:36.534Z,1.04
2018-12-21T05:52:07.648Z,1.06
2018-12-21T05:52:38.801Z,1.08
2018-12-21T05:53:10.607Z,1.09
2018-12-21T05:53:41.715Z,1.10
2018-12-21T05:54:13.978Z,0.89
2018-12-21T05:54:45.076Z,1.22
2018-12-21T05:55:16.183Z,1.28
2018-12-21T05:55:47.316Z,1.31
2018-12-21T05:56:18.423Z,1.32
2018-12-21T05:56:49.549Z,1.30
2018-12-21T05:57:20.648Z,1.33
2018-12-21T05:57:52.686Z,1.33
2018-12-21T05:58:23.838Z,1.32
2018-12-21T05:58:54.955Z,1.29
2018-12-21T05:59:26.072Z,1.25
2018-12-21T05:59:57.203Z,1.18
2018-12-21T06:00:28.329Z,1.17
2018-12-21T06:00:59.441Z,1.16
2018-12-21T06:01:30.562Z,1.17
2018-12-21T06:02:01.716Z,1.14
2018-12-21T06:02:32.820Z,1.16
2018-12-21T06:03:06.495Z,1.16
2018-12-21T06:03:44.922Z,1.13
2018-12-21T06:04:18.245Z,1.09
2018-12-21T06:04:49.411Z,1.09
2018-12-21T06:05:20.578Z,1.07
2018-12-21T06:05:51.788Z,1.08
2018-12-21T06:06:22.928Z,1.07
2018-12-21T06:06:54.044Z,1.08
2018-12-21T06:07:25.152Z,1.08
2018-12-21T06:07:56.999Z,1.08
2018-12-21T06:08:28.530Z,1.08
2018-12-21T06:08:59.833Z,1.08
2018-12-21T06:09:31.013Z,1.07
2018-12-21T06:10:02.145Z,1.04
2018-12-21T06:10:33.333Z,1.00
2018-12-21T06:11:04.452Z,0.93
2018-12-21T06:11:35.560Z,0.91
2018-12-21T06:12:06.679Z,0.91
2018-12-21T06:12:37.833Z,0.95
2018-12-21T06:13:08.986Z,0.98
2018-12-21T06:13:40.193Z,1.00
2018-12-21T06:14:11.316Z,1.02
2018-12-21T06:14:42.459Z,1.06
2018-12-21T06:15:13.560Z,1.07
2018-12-21T06:15:44.670Z,1.07
2018-12-21T06:16:15.809Z,1.03
2018-12-21T06:16:46.929Z,1.02
2018-12-21T06:17:18.035Z,0.99
2018-12-21T06:17:49.164Z,0.99
2018-12-21T06:18:20.289Z,1.02
2018-12-21T06:18:51.419Z,1.04
2018-12-21T06:19:22.523Z,1.02
2018-12-21T06:19:53.677Z,1.03
2018-12-21T06:20:24.781Z,1.03
2018-12-21T06:20:55.888Z,1.06
2018-12-21T06:21:27.001Z,1.08
2018-12-21T06:21:58.097Z,1.10
2018-12-21T06:22:29.216Z,1.14
2018-12-21T06:23:00.325Z,1.13
2018-12-21T06:23:31.438Z,1.13
2018-12-21T06:24:02.550Z,1.13
2018-12-21T06:24:33.691Z,1.11
2018-12-21T06:25:05.481Z,1.10
2018-12-21T06:25:36.588Z,1.13
2018-12-21T06:26:07.694Z,1.17
2018-12-21T06:26:40.683Z,1.22
2018-12-21T06:27:12.015Z,1.22
2018-12-21T06:27:43.138Z,1.24
2018-12-21T06:28:14.250Z,1.23
2018-12-21T06:28:45.363Z,1.23
2018-12-21T06:29:16.507Z,1.24
2018-12-21T06:29:47.648Z,1.28
2018-12-21T06:30:18.753Z,1.28
2018-12-21T06:30:49.862Z,1.28
2018-12-21T06:31:21.002Z,1.28
2018-12-21T06:31:52.152Z,1.27
2018-12-21T06:32:23.302Z,1.27
2018-12-21T06:32:54.409Z,1.24
2018-12-21T06:33:25.540Z,1.16
2018-12-21T06:33:56.672Z,1.13
2018-12-21T06:34:27.777Z,1.13
2018-12-21T06:34:58.906Z,1.12
2018-12-21T06:35:30.057Z,1.10
2018-12-21T06:36:01.163Z,1.09
2018-12-21T06:36:32.291Z,1.11
2018-12-21T06:37:03.401Z,1.12
2018-12-21T06:37:34.564Z,1.15
2018-12-21T06:38:05.736Z,1.17
2018-12-21T06:38:36.867Z,1.16
2018-12-21T06:39:07.995Z,1.13
2018-12-21T06:39:39.148Z,1.16
2018-12-21T06:40:10.875Z,1.16
2018-12-21T06:40:42.116Z,1.15
2018-12-21T06:41:13.258Z,1.13
2018-12-21T06:41:44.365Z,1.13
2018-12-21T06:42:15.494Z,1.13
2018-12-21T06:42:46.632Z,1.14
2018-12-21T06:43:17.761Z,1.16
2018-12-21T06:43:48.872Z,1.18
2018-12-21T06:44:20.097Z,1.18
2018-12-21T06:44:51.504Z,1.24
2018-12-21T06:45:22.718Z,1.27
2018-12-21T06:45:53.941Z,1.29
2018-12-21T06:46:25.078Z,1.31
2018-12-21T06:46:56.196Z,1.32
2018-12-21T06:47:27.298Z,1.35
2018-12-21T06:47:59.082Z,1.37
2018-12-21T06:48:30.259Z,1.39
2018-12-21T06:49:02.183Z,1.41
2018-12-21T06:49:33.394Z,1.46
2018-12-21T06:50:04.799Z,1.49
2018-12-21T06:50:36.038Z,1.48
2018-12-21T06:51:07.269Z,1.48
2018-12-21T06:51:38.465Z,1.48
2018-12-21T06:52:09.719Z,1.46
2018-12-21T06:52:44.016Z,1.44
2018-12-21T06:53:18.126Z,1.48
2018-12-21T06:53:48.539Z,1.50
2018-12-21T06:54:19.842Z,1.47
2018-12-21T06:54:51.041Z,1.51
2018-12-21T06:55:22.247Z,1.53
2018-12-21T06:55:53.458Z,1.54